sensor_id;sensor_type;location;lat;lon;timestamp;pressure;altitude;pressure_sealevel;temperature;humidity
69402;BME280;56589;51.992;5.924;2022-12-18T00:02:19;102274.56;;;-4.99;78.85
69402;BME280;56589;51.992;5.924;2022-12-18T00:04:45;102268.59;;;-4.98;78.69
69402;BME280;56589;51.992;5.924;2022-12-18T00:07:11;102263.38;;;-5.01;78.96
69402;BME280;56589;51.992;5.924;2022-12-18T00:17:40;102245.75;;;-5.25;78.84
69402;BME280;56589;51.992;5.924;2022-12-18T00:40:52;102223.78;;;-5.51;79.51
69402;BME280;56589;51.992;5.924;2022-12-18T00:43:17;102234.75;;;-5.55;79.57
69402;BME280;56589;51.992;5.924;2022-12-18T00:45:43;102239.84;;;-5.57;79.49
69402;BME280;56589;51.992;5.924;2022-12-18T00:48:11;102244.91;;;-5.58;79.50
69402;BME280;56589;51.992;5.924;2022-12-18T00:58:26;102249.16;;;-5.59;78.89
69402;BME280;56589;51.992;5.924;2022-12-18T01:00:52;102253.47;;;-5.58;79.09
69402;BME280;56589;51.992;5.924;2022-12-18T01:03:19;102246.63;;;-5.59;79.02
69402;BME280;56589;51.992;5.924;2022-12-18T01:05:45;102244.81;;;-5.62;79.27
69402;BME280;56589;51.992;5.924;2022-12-18T01:08:11;102249.03;;;-5.64;79.16
69402;BME280;56589;51.992;5.924;2022-12-18T01:10:39;102254.06;;;-5.67;79.37
69402;BME280;56589;51.992;5.924;2022-12-18T01:13:06;102252.41;;;-5.66;79.02
69402;BME280;56589;51.992;5.924;2022-12-18T01:15:34;102238.00;;;-5.61;79.13
69402;BME280;56589;51.992;5.924;2022-12-18T01:18:00;102232.09;;;-5.60;78.92
69402;BME280;56589;51.992;5.924;2022-12-18T01:20:26;102227.75;;;-5.63;78.69
69402;BME280;56589;51.992;5.924;2022-12-18T01:22:52;102227.69;;;-5.66;78.68
69402;BME280;56589;51.992;5.924;2022-12-18T01:25:18;102224.16;;;-5.69;78.59
69402;BME280;56589;51.992;5.924;2022-12-18T01:27:44;102225.72;;;-5.74;78.62
69402;BME280;56589;51.992;5.924;2022-12-18T01:30:10;102227.38;;;-5.78;78.69
69402;BME280;56589;51.992;5.924;2022-12-18T01:32:39;102227.28;;;-5.81;78.85
69402;BME280;56589;51.992;5.924;2022-12-18T01:35:07;102229.69;;;-5.86;78.97
69402;BME280;56589;51.992;5.924;2022-12-18T01:37:33;102238.16;;;-5.88;79.10
69402;BME280;56589;51.992;5.924;2022-12-18T01:40:01;102234.66;;;-5.92;78.90
69402;BME280;56589;51.992;5.924;2022-12-18T01:42:27;102237.19;;;-5.93;79.09
69402;BME280;56589;51.992;5.924;2022-12-18T01:45:01;102243.13;;;-5.94;78.95
69402;BME280;56589;51.992;5.924;2022-12-18T01:47:57;102243.09;;;-5.96;78.88
69402;BME280;56589;51.992;5.924;2022-12-18T01:50:29;102249.09;;;-5.94;79.09
69402;BME280;56589;51.992;5.924;2022-12-18T02:24:18;102243.41;;;-6.15;78.22
69402;BME280;56589;51.992;5.924;2022-12-18T02:26:59;102241.59;;;-6.19;78.55
69402;BME280;56589;51.992;5.924;2022-12-18T02:29:32;102234.72;;;-6.22;78.43
69402;BME280;56589;51.992;5.924;2022-12-18T02:32:06;102238.91;;;-6.22;78.50
69402;BME280;56589;51.992;5.924;2022-12-18T02:34:38;102244.00;;;-6.24;78.12
69402;BME280;56589;51.992;5.924;2022-12-18T02:37:07;102239.66;;;-6.28;78.18
69402;BME280;56589;51.992;5.924;2022-12-18T02:39:40;102237.81;;;-6.32;78.23
69402;BME280;56589;51.992;5.924;2022-12-18T02:42:11;102237.69;;;-6.36;78.39
69402;BME280;56589;51.992;5.924;2022-12-18T02:44:42;102246.16;;;-6.37;78.16
69402;BME280;56589;51.992;5.924;2022-12-18T02:47:10;102238.50;;;-6.37;78.34
69402;BME280;56589;51.992;5.924;2022-12-18T02:49:47;102232.53;;;-6.38;78.00
69402;BME280;56589;51.992;5.924;2022-12-18T02:52:26;102235.94;;;-6.37;78.30
69402;BME280;56589;51.992;5.924;2022-12-18T02:55:02;102231.66;;;-6.38;78.46
69402;BME280;56589;51.992;5.924;2022-12-18T02:57:46;102228.28;;;-6.37;78.38
69402;BME280;56589;51.992;5.924;2022-12-18T03:00:21;102235.94;;;-6.37;78.17
69402;BME280;56589;51.992;5.924;2022-12-18T03:02:54;102236.78;;;-6.38;78.13
69402;BME280;56589;51.992;5.924;2022-12-18T03:05:29;102229.94;;;-6.39;78.27
69402;BME280;56589;51.992;5.924;2022-12-18T03:08:02;102228.19;;;-6.41;78.21
69402;BME280;56589;51.992;5.924;2022-12-18T03:10:35;102228.19;;;-6.41;78.28
69402;BME280;56589;51.992;5.924;2022-12-18T03:13:13;102224.72;;;-6.43;78.26
69402;BME280;56589;51.992;5.924;2022-12-18T03:15:47;102217.84;;;-6.45;77.88
69402;BME280;56589;51.992;5.924;2022-12-18T03:18:18;102210.13;;;-6.47;77.88
69402;BME280;56589;51.992;5.924;2022-12-18T03:20:51;102222.84;;;-6.48;78.06
69402;BME280;56589;51.992;5.924;2022-12-18T03:23:24;102216.00;;;-6.51;77.69
69402;BME280;56589;51.992;5.924;2022-12-18T03:25:58;102217.56;;;-6.54;78.21
69402;BME280;56589;51.992;5.924;2022-12-18T03:28:32;102213.28;;;-6.55;77.89
69402;BME280;56589;51.992;5.924;2022-12-18T03:31:04;102215.72;;;-6.60;77.84
69402;BME280;56589;51.992;5.924;2022-12-18T03:33:37;102209.69;;;-6.62;78.08
69402;BME280;56589;51.992;5.924;2022-12-18T03:36:07;102200.28;;;-6.64;78.15
69402;BME280;56589;51.992;5.924;2022-12-18T03:38:33;102198.63;;;-6.62;78.38
69402;BME280;56589;51.992;5.924;2022-12-18T03:41:04;102196.09;;;-6.61;78.24
69402;BME280;56589;51.992;5.924;2022-12-18T03:43:49;102197.81;;;-6.60;78.47
69402;BME280;56589;51.992;5.924;2022-12-18T03:46:26;102195.28;;;-6.60;78.02
69402;BME280;56589;51.992;5.924;2022-12-18T03:48:59;102190.16;;;-6.60;78.35
69402;BME280;56589;51.992;5.924;2022-12-18T03:51:39;102186.78;;;-6.59;78.34
69402;BME280;56589;51.992;5.924;2022-12-18T03:54:13;102190.22;;;-6.58;78.35
69402;BME280;56589;51.992;5.924;2022-12-18T03:56:44;102184.28;;;-6.57;78.28
69402;BME280;56589;51.992;5.924;2022-12-18T03:59:20;102188.53;;;-6.58;78.47
69402;BME280;56589;51.992;5.924;2022-12-18T04:01:52;102184.22;;;-6.59;78.33
69402;BME280;56589;51.992;5.924;2022-12-18T04:04:21;102178.22;;;-6.61;78.42
69402;BME280;56589;51.992;5.924;2022-12-18T04:06:53;102182.56;;;-6.58;78.41
69402;BME280;56589;51.992;5.924;2022-12-18T04:09:21;102189.44;;;-6.56;78.47
69402;BME280;56589;51.992;5.924;2022-12-18T04:11:48;102186.06;;;-6.55;78.53
69402;BME280;56589;51.992;5.924;2022-12-18T04:14:14;102181.84;;;-6.53;78.37
69402;BME280;56589;51.992;5.924;2022-12-18T04:16:43;102185.34;;;-6.51;78.66
69402;BME280;56589;51.992;5.924;2022-12-18T04:19:09;102179.44;;;-6.48;78.68
69402;BME280;56589;51.992;5.924;2022-12-18T04:21:35;102186.38;;;-6.44;78.55
69402;BME280;56589;51.992;5.924;2022-12-18T04:24:01;102176.16;;;-6.44;78.64
69402;BME280;56589;51.992;5.924;2022-12-18T04:26:27;102173.56;;;-6.46;78.66
69402;BME280;56589;51.992;5.924;2022-12-18T04:28:52;102175.34;;;-6.42;78.52
69402;BME280;56589;51.992;5.924;2022-12-18T04:31:18;102167.69;;;-6.42;78.51
69402;BME280;56589;51.992;5.924;2022-12-18T04:33:47;102170.31;;;-6.40;78.42
69402;BME280;56589;51.992;5.924;2022-12-18T04:36:13;102164.28;;;-6.42;78.38
69402;BME280;56589;51.992;5.924;2022-12-18T04:38:41;102165.13;;;-6.42;78.33
69402;BME280;56589;51.992;5.924;2022-12-18T04:41:09;102171.06;;;-6.43;78.44
69402;BME280;56589;51.992;5.924;2022-12-18T04:43:35;102165.94;;;-6.44;78.59
69402;BME280;56589;51.992;5.924;2022-12-18T04:46:04;102160.84;;;-6.43;78.38
69402;BME280;56589;51.992;5.924;2022-12-18T04:48:32;102159.09;;;-6.45;78.44
69402;BME280;56589;51.992;5.924;2022-12-18T04:51:00;102165.91;;;-6.46;78.61
69402;BME280;56589;51.992;5.924;2022-12-18T04:53:27;102176.13;;;-6.46;78.40
69402;BME280;56589;51.992;5.924;2022-12-18T04:56:03;102171.81;;;-6.47;78.40
69402;BME280;56589;51.992;5.924;2022-12-18T04:58:30;102168.38;;;-6.47;78.46
69402;BME280;56589;51.992;5.924;2022-12-18T05:00:56;102171.00;;;-6.46;78.42
69402;BME280;56589;51.992;5.924;2022-12-18T05:03:22;102171.91;;;-6.44;78.41
69402;BME280;56589;51.992;5.924;2022-12-18T05:05:52;102162.56;;;-6.42;78.56
69402;BME280;56589;51.992;5.924;2022-12-18T05:08:21;102168.63;;;-6.39;78.90
69402;BME280;56589;51.992;5.924;2022-12-18T05:10:47;102177.22;;;-6.36;78.49
69402;BME280;56589;51.992;5.924;2022-12-18T05:13:13;102185.84;;;-6.32;78.41
69402;BME280;56589;51.992;5.924;2022-12-18T05:15:39;102182.50;;;-6.30;78.48
69402;BME280;56589;51.992;5.924;2022-12-18T05:18:05;102195.38;;;-6.27;78.56
69402;BME280;56589;51.992;5.924;2022-12-18T05:20:31;102201.34;;;-6.26;78.33
69402;BME280;56589;51.992;5.924;2022-12-18T05:22:57;102203.91;;;-6.26;78.38
69402;BME280;56589;51.992;5.924;2022-12-18T05:25:26;102211.56;;;-6.26;78.25
69402;BME280;56589;51.992;5.924;2022-12-18T05:27:51;102212.44;;;-6.26;78.26
69402;BME280;56589;51.992;5.924;2022-12-18T05:30:19;102210.72;;;-6.27;78.33
69402;BME280;56589;51.992;5.924;2022-12-18T05:32:45;102214.03;;;-6.29;77.94
69402;BME280;56589;51.992;5.924;2022-12-18T05:35:11;102219.97;;;-6.30;78.31
69402;BME280;56589;51.992;5.924;2022-12-18T05:37:37;102229.31;;;-6.31;77.82
69402;BME280;56589;51.992;5.924;2022-12-18T05:40:05;102242.97;;;-6.30;77.98
69402;BME280;56589;51.992;5.924;2022-12-18T05:42:34;102239.47;;;-6.34;77.76
69402;BME280;56589;51.992;5.924;2022-12-18T05:45:00;102234.22;;;-6.38;77.81
69402;BME280;56589;51.992;5.924;2022-12-18T05:47:26;102231.56;;;-6.42;77.84
69402;BME280;56589;51.992;5.924;2022-12-18T05:49:52;102231.50;;;-6.45;77.95
69402;BME280;56589;51.992;5.924;2022-12-18T05:52:19;102226.38;;;-6.45;78.03
69402;BME280;56589;51.992;5.924;2022-12-18T05:54:45;102223.81;;;-6.45;78.07
69402;BME280;56589;51.992;5.924;2022-12-18T05:57:11;102212.63;;;-6.48;77.88
69402;BME280;56589;51.992;5.924;2022-12-18T05:59:40;102211.75;;;-6.50;77.89
69402;BME280;56589;51.992;5.924;2022-12-18T06:02:05;102192.00;;;-6.56;78.08
69402;BME280;56589;51.992;5.924;2022-12-18T06:04:31;102189.41;;;-6.57;78.30
69402;BME280;56589;51.992;5.924;2022-12-18T06:06:57;102191.88;;;-6.59;78.33
69402;BME280;56589;51.992;5.924;2022-12-18T06:09:23;102184.22;;;-6.59;78.08
69402;BME280;56589;51.992;5.924;2022-12-18T06:11:52;102177.47;;;-6.58;78.17
69402;BME280;56589;51.992;5.924;2022-12-18T06:14:17;102176.63;;;-6.57;78.12
69402;BME280;56589;51.992;5.924;2022-12-18T06:16:46;102173.28;;;-6.55;78.42
69402;BME280;56589;51.992;5.924;2022-12-18T06:19:15;102175.94;;;-6.52;78.22
69402;BME280;56589;51.992;5.924;2022-12-18T06:21:43;102180.28;;;-6.48;78.32
69402;BME280;56589;51.992;5.924;2022-12-18T06:24:09;102178.69;;;-6.44;78.52
69402;BME280;56589;51.992;5.924;2022-12-18T06:26:37;102178.78;;;-6.41;78.51
69402;BME280;56589;51.992;5.924;2022-12-18T06:29:04;102178.91;;;-6.36;78.37
69402;BME280;56589;51.992;5.924;2022-12-18T06:31:30;102173.84;;;-6.35;78.30
69402;BME280;56589;51.992;5.924;2022-12-18T06:33:58;102166.16;;;-6.35;78.31
69402;BME280;56589;51.992;5.924;2022-12-18T06:36:24;102161.03;;;-6.36;78.36
69402;BME280;56589;51.992;5.924;2022-12-18T06:38:50;102159.28;;;-6.37;78.24
69402;BME280;56589;51.992;5.924;2022-12-18T06:41:17;102152.53;;;-6.35;78.41
69402;BME280;56589;51.992;5.924;2022-12-18T06:43:46;102153.38;;;-6.35;78.20
69402;BME280;56589;51.992;5.924;2022-12-18T06:46:12;102161.13;;;-6.33;78.44
69402;BME280;56589;51.992;5.924;2022-12-18T06:48:39;102157.75;;;-6.32;78.61
69402;BME280;56589;51.992;5.924;2022-12-18T06:51:07;102155.25;;;-6.29;78.75
69402;BME280;56589;51.992;5.924;2022-12-18T06:53:34;102145.09;;;-6.28;78.74
69402;BME280;56589;51.992;5.924;2022-12-18T06:56:00;102144.31;;;-6.24;78.52
69402;BME280;56589;51.992;5.924;2022-12-18T06:58:26;102151.22;;;-6.21;78.50
69402;BME280;56589;51.992;5.924;2022-12-18T07:00:52;102141.03;;;-6.20;78.52
69402;BME280;56589;51.992;5.924;2022-12-18T07:03:18;102138.50;;;-6.18;78.63
69402;BME280;56589;51.992;5.924;2022-12-18T07:05:44;102139.41;;;-6.16;78.43
69402;BME280;56589;51.992;5.924;2022-12-18T07:08:14;102134.38;;;-6.15;78.74
69402;BME280;56589;51.992;5.924;2022-12-18T07:10:41;102131.00;;;-6.12;78.65
69402;BME280;56589;51.992;5.924;2022-12-18T07:13:08;102131.91;;;-6.10;78.30
69402;BME280;56589;51.992;5.924;2022-12-18T07:15:34;102131.97;;;-6.08;78.59
69402;BME280;56589;51.992;5.924;2022-12-18T07:18:00;102134.56;;;-6.07;78.25
69402;BME280;56589;51.992;5.924;2022-12-18T07:20:26;102137.16;;;-6.04;78.36
69402;BME280;56589;51.992;5.924;2022-12-18T07:22:52;102145.81;;;-6.00;78.52
69402;BME280;56589;51.992;5.924;2022-12-18T07:25:21;102142.50;;;-5.96;78.27
69402;BME280;56589;51.992;5.924;2022-12-18T07:27:46;102135.75;;;-5.93;78.31
69402;BME280;56589;51.992;5.924;2022-12-18T07:30:12;102137.56;;;-5.89;78.28
69402;BME280;56589;51.992;5.924;2022-12-18T07:32:38;102130.06;;;-5.82;78.54
69402;BME280;56589;51.992;5.924;2022-12-18T07:35:05;102137.03;;;-5.77;78.61
69402;BME280;56589;51.992;5.924;2022-12-18T07:37:31;102136.31;;;-5.71;78.38
69402;BME280;56589;51.992;5.924;2022-12-18T07:39:57;102129.56;;;-5.68;78.20
69402;BME280;56589;51.992;5.924;2022-12-18T07:42:25;102121.97;;;-5.65;78.32
69402;BME280;56589;51.992;5.924;2022-12-18T07:44:51;102111.78;;;-5.62;78.35
69402;BME280;56589;51.992;5.924;2022-12-18T07:47:17;102106.72;;;-5.60;78.07
69402;BME280;56589;51.992;5.924;2022-12-18T07:49:42;102105.09;;;-5.56;78.29
69402;BME280;56589;51.992;5.924;2022-12-18T07:52:08;102097.44;;;-5.55;78.20
69402;BME280;56589;51.992;5.924;2022-12-18T07:54:34;102096.66;;;-5.54;77.90
69402;BME280;56589;51.992;5.924;2022-12-18T07:57:00;102094.16;;;-5.49;78.03
69402;BME280;56589;51.992;5.924;2022-12-18T07:59:28;102090.00;;;-5.46;78.15
69402;BME280;56589;51.992;5.924;2022-12-18T08:01:54;102084.94;;;-5.43;78.22
69402;BME280;56589;51.992;5.924;2022-12-18T08:04:20;102085.00;;;-5.41;78.02
69402;BME280;56589;51.992;5.924;2022-12-18T08:06:46;102083.34;;;-5.38;77.82
69402;BME280;56589;51.992;5.924;2022-12-18T08:09:12;102084.31;;;-5.33;77.97
69402;BME280;56589;51.992;5.924;2022-12-18T08:11:38;102088.69;;;-5.28;77.81
69402;BME280;56589;51.992;5.924;2022-12-18T08:14:04;102076.78;;;-5.26;77.66
69402;BME280;56589;51.992;5.924;2022-12-18T08:16:32;102070.91;;;-5.22;78.00
69402;BME280;56589;51.992;5.924;2022-12-18T08:18:58;102070.09;;;-5.20;77.99
69402;BME280;56589;51.992;5.924;2022-12-18T08:21:26;102066.75;;;-5.16;78.05
69402;BME280;56589;51.992;5.924;2022-12-18T08:23:55;102075.41;;;-5.11;77.73
69402;BME280;56589;51.992;5.924;2022-12-18T08:26:22;102084.00;;;-5.07;77.80
69402;BME280;56589;51.992;5.924;2022-12-18T08:28:53;102077.28;;;-5.02;77.67
69402;BME280;56589;51.992;5.924;2022-12-18T08:31:20;102079.09;;;-4.96;77.92
69402;BME280;56589;51.992;5.924;2022-12-18T08:33:49;102073.22;;;-4.92;77.69
69402;BME280;56589;51.992;5.924;2022-12-18T08:36:16;102070.69;;;-4.91;77.29
69402;BME280;56589;51.992;5.924;2022-12-18T08:38:42;102058.78;;;-4.89;77.21
69402;BME280;56589;51.992;5.924;2022-12-18T08:41:11;102063.13;;;-4.85;77.53
69402;BME280;56589;51.992;5.924;2022-12-18T08:43:39;102079.47;;;-4.78;77.51
69402;BME280;56589;51.992;5.924;2022-12-18T08:46:06;102085.50;;;-4.74;77.53
69402;BME280;56589;51.992;5.924;2022-12-18T08:48:32;102075.34;;;-4.71;77.31
69402;BME280;56589;51.992;5.924;2022-12-18T08:51:00;102083.06;;;-4.68;77.50
69402;BME280;56589;51.992;5.924;2022-12-18T08:53:27;102083.13;;;-4.65;77.37
69402;BME280;56589;51.992;5.924;2022-12-18T08:55:53;102078.03;;;-4.65;77.11
69402;BME280;56589;51.992;5.924;2022-12-18T08:58:19;102084.94;;;-4.61;77.06
69402;BME280;56589;51.992;5.924;2022-12-18T09:00:45;102077.28;;;-4.58;77.01
69402;BME280;56589;51.992;5.924;2022-12-18T09:03:12;102085.94;;;-4.53;77.45
69402;BME280;56589;51.992;5.924;2022-12-18T09:05:38;102072.34;;;-4.49;77.12
69402;BME280;56589;51.992;5.924;2022-12-18T09:08:07;102086.91;;;-4.46;76.88
69402;BME280;56589;51.992;5.924;2022-12-18T09:10:34;102081.91;;;-4.40;77.06
69402;BME280;56589;51.992;5.924;2022-12-18T09:13:06;102082.03;;;-4.33;77.33
69402;BME280;56589;51.992;5.924;2022-12-18T09:15:32;102079.56;;;-4.28;77.19
69402;BME280;56589;51.992;5.924;2022-12-18T09:17:57;102083.97;;;-4.19;77.20
69402;BME280;56589;51.992;5.924;2022-12-18T09:20:23;102071.25;;;-4.13;76.92
69402;BME280;56589;51.992;5.924;2022-12-18T09:22:51;102076.56;;;-4.04;77.24
69402;BME280;56589;51.992;5.924;2022-12-18T09:25:20;102063.06;;;-3.94;76.94
69402;BME280;56589;51.992;5.924;2022-12-18T09:27:46;102052.06;;;-3.85;76.59
69402;BME280;56589;51.992;5.924;2022-12-18T09:30:13;102052.22;;;-3.76;76.48
69402;BME280;56589;51.992;5.924;2022-12-18T09:32:39;102068.59;;;-3.65;76.66
69402;BME280;56589;51.992;5.924;2022-12-18T09:35:05;102063.63;;;-3.56;76.32
69402;BME280;56589;51.992;5.924;2022-12-18T09:37:31;102069.75;;;-3.46;76.25
69402;BME280;56589;51.992;5.924;2022-12-18T09:39:57;102068.16;;;-3.38;75.95
69402;BME280;56589;51.992;5.924;2022-12-18T09:42:26;102064.84;;;-3.31;76.00
69402;BME280;56589;51.992;5.924;2022-12-18T09:44:53;102060.63;;;-3.26;75.43
69402;BME280;56589;51.992;5.924;2022-12-18T09:47:23;102072.72;;;-3.17;75.69
69402;BME280;56589;51.992;5.924;2022-12-18T09:49:56;102059.09;;;-3.10;75.79
69402;BME280;56589;51.992;5.924;2022-12-18T09:52:26;102060.03;;;-3.05;74.73
69402;BME280;56589;51.992;5.924;2022-12-18T09:55:01;102054.97;;;-2.99;75.05
69402;BME280;56589;51.992;5.924;2022-12-18T09:57:40;102059.31;;;-2.93;74.59
69402;BME280;56589;51.992;5.924;2022-12-18T10:00:16;102046.53;;;-2.90;74.42
69402;BME280;56589;51.992;5.924;2022-12-18T10:02:45;102044.84;;;-2.86;74.63
69402;BME280;56589;51.992;5.924;2022-12-18T10:05:13;102038.88;;;-2.82;74.67
69402;BME280;56589;51.992;5.924;2022-12-18T10:07:52;102035.53;;;-2.77;75.08
69402;BME280;56589;51.992;5.924;2022-12-18T10:10:32;102030.41;;;-2.72;74.91
69402;BME280;56589;51.992;5.924;2022-12-18T10:13:15;102034.75;;;-2.70;74.59
69402;BME280;56589;51.992;5.924;2022-12-18T10:15:56;102034.75;;;-2.67;74.32
69402;BME280;56589;51.992;5.924;2022-12-18T10:18:39;102029.66;;;-2.62;74.51
69402;BME280;56589;51.992;5.924;2022-12-18T10:21:19;102028.00;;;-2.58;73.96
69402;BME280;56589;51.992;5.924;2022-12-18T10:23:56;102016.94;;;-2.53;73.88
69402;BME280;56589;51.992;5.924;2022-12-18T10:26:35;102012.66;;;-2.48;73.59
69402;BME280;56589;51.992;5.924;2022-12-18T10:29:06;102011.00;;;-2.46;73.19
69402;BME280;56589;51.992;5.924;2022-12-18T10:31:37;102005.00;;;-2.42;73.31
69402;BME280;56589;51.992;5.924;2022-12-18T10:34:03;102000.75;;;-2.38;72.96
69402;BME280;56589;51.992;5.924;2022-12-18T10:36:29;102005.09;;;-2.34;73.56
69402;BME280;56589;51.992;5.924;2022-12-18T10:39:14;101996.56;;;-2.27;73.75
69402;BME280;56589;51.992;5.924;2022-12-18T10:41:42;101999.19;;;-2.21;73.37
69402;BME280;56589;51.992;5.924;2022-12-18T10:44:16;101998.34;;;-2.20;72.44
69402;BME280;56589;51.992;5.924;2022-12-18T10:46:44;101986.38;;;-2.16;72.81
69402;BME280;56589;51.992;5.924;2022-12-18T10:49:23;101981.25;;;-2.15;72.31
69402;BME280;56589;51.992;5.924;2022-12-18T10:52:05;101985.53;;;-2.11;73.01
69402;BME280;56589;51.992;5.924;2022-12-18T10:54:33;101979.56;;;-2.05;72.26
69402;BME280;56589;51.992;5.924;2022-12-18T10:57:14;101977.03;;;-2.02;72.39
69402;BME280;56589;51.992;5.924;2022-12-18T10:59:53;101968.50;;;-1.96;72.91
69402;BME280;56589;51.992;5.924;2022-12-18T11:02:27;101966.81;;;-1.90;72.52
69402;BME280;56589;51.992;5.924;2022-12-18T11:04:59;101966.88;;;-1.84;72.52
69402;BME280;56589;51.992;5.924;2022-12-18T11:07:25;101966.03;;;-1.79;72.36
69402;BME280;56589;51.992;5.924;2022-12-18T11:09:59;101966.03;;;-1.75;72.71
69402;BME280;56589;51.992;5.924;2022-12-18T11:12:28;101967.78;;;-1.69;72.48
69402;BME280;56589;51.992;5.924;2022-12-18T11:14:59;101959.25;;;-1.64;72.72
69402;BME280;56589;51.992;5.924;2022-12-18T11:17:30;101964.44;;;-1.61;72.17
69402;BME280;56589;51.992;5.924;2022-12-18T11:19:58;101960.16;;;-1.54;72.15
69402;BME280;56589;51.992;5.924;2022-12-18T11:22:28;101953.31;;;-1.49;72.21
69402;BME280;56589;51.992;5.924;2022-12-18T11:24:58;101949.88;;;-1.48;71.08
69402;BME280;56589;51.992;5.924;2022-12-18T11:27:28;101948.19;;;-1.47;70.75
69402;BME280;56589;51.992;5.924;2022-12-18T11:30:08;101934.44;;;-1.48;70.15
69402;BME280;56589;51.992;5.924;2022-12-18T11:32:47;101920.69;;;-1.47;70.63
69402;BME280;56589;51.992;5.924;2022-12-18T11:35:20;101918.13;;;-1.44;71.12
69402;BME280;56589;51.992;5.924;2022-12-18T11:37:55;101913.00;;;-1.39;70.01
69402;BME280;56589;51.992;5.924;2022-12-18T11:40:31;101919.03;;;-1.36;70.88
69402;BME280;56589;51.992;5.924;2022-12-18T11:43:07;101921.63;;;-1.28;70.35
69402;BME280;56589;51.992;5.924;2022-12-18T11:45:43;101925.06;;;-1.26;69.89
69402;BME280;56589;51.992;5.924;2022-12-18T11:48:18;101922.50;;;-1.24;69.64
69402;BME280;56589;51.992;5.924;2022-12-18T11:50:50;101931.94;;;-1.22;69.53
69402;BME280;56589;51.992;5.924;2022-12-18T11:53:18;101927.69;;;-1.18;69.85
69402;BME280;56589;51.992;5.924;2022-12-18T11:55:56;101919.06;;;-1.13;70.11
69402;BME280;56589;51.992;5.924;2022-12-18T11:58:43;101909.66;;;-1.11;69.80
69402;BME280;56589;51.992;5.924;2022-12-18T12:01:22;101907.09;;;-1.06;69.78
69402;BME280;56589;51.992;5.924;2022-12-18T12:04:11;101901.06;;;-1.05;69.47
69402;BME280;56589;51.992;5.924;2022-12-18T12:07:11;101897.66;;;-0.99;69.94
69402;BME280;56589;51.992;5.924;2022-12-18T12:09:54;101885.59;;;-0.94;69.61
69402;BME280;56589;51.992;5.924;2022-12-18T12:12:36;101873.56;;;-0.94;68.66
69402;BME280;56589;51.992;5.924;2022-12-18T12:15:20;101875.28;;;-0.96;68.68
69402;BME280;56589;51.992;5.924;2022-12-18T12:18:07;101877.00;;;-0.95;68.89
69402;BME280;56589;51.992;5.924;2022-12-18T12:20:48;101865.84;;;-0.91;68.76
69402;BME280;56589;51.992;5.924;2022-12-18T12:23:25;101859.81;;;-0.88;69.14
69402;BME280;56589;51.992;5.924;2022-12-18T12:26:01;101857.25;;;-0.84;69.21
69402;BME280;56589;51.992;5.924;2022-12-18T12:28:53;101860.72;;;-0.80;69.10
69402;BME280;56589;51.992;5.924;2022-12-18T12:31:51;101865.84;;;-0.79;69.08
69402;BME280;56589;51.992;5.924;2022-12-18T12:34:52;101862.44;;;-0.81;66.86
69402;BME280;56589;51.992;5.924;2022-12-18T12:37:33;101858.13;;;-0.79;68.50
69402;BME280;56589;51.992;5.924;2022-12-18T12:40:11;101862.44;;;-0.75;68.64
69402;BME280;56589;51.992;5.924;2022-12-18T12:42:46;101853.81;;;-0.72;68.26
69402;BME280;56589;51.992;5.924;2022-12-18T12:45:23;101842.63;;;-0.76;68.06
69402;BME280;56589;51.992;5.924;2022-12-18T12:47:57;101845.22;;;-0.73;68.16
69402;BME280;56589;51.992;5.924;2022-12-18T12:50:33;101835.78;;;-0.72;68.05
69402;BME280;56589;51.992;5.924;2022-12-18T12:53:05;101835.75;;;-0.70;67.91
69402;BME280;56589;51.992;5.924;2022-12-18T12:55:37;101829.75;;;-0.69;67.79
69402;BME280;56589;51.992;5.924;2022-12-18T12:58:19;101825.44;;;-0.70;67.21
69402;BME280;56589;51.992;5.924;2022-12-18T13:00:58;101816.84;;;-0.71;67.59
69402;BME280;56589;51.992;5.924;2022-12-18T13:03:41;101816.00;;;-0.71;67.63
69402;BME280;56589;51.992;5.924;2022-12-18T13:06:25;101808.25;;;-0.70;67.32
69402;BME280;56589;51.992;5.924;2022-12-18T13:09:00;101811.69;;;-0.69;67.27
69402;BME280;56589;51.992;5.924;2022-12-18T13:11:36;101809.13;;;-0.68;66.51
69402;BME280;56589;51.992;5.924;2022-12-18T13:14:04;101802.25;;;-0.70;66.60
69402;BME280;56589;51.992;5.924;2022-12-18T13:16:30;101807.41;;;-0.72;66.83
69402;BME280;56589;51.992;5.924;2022-12-18T13:18:58;101814.25;;;-0.69;67.37
69402;BME280;56589;51.992;5.924;2022-12-18T13:21:30;101800.53;;;-0.67;67.52
69402;BME280;56589;51.992;5.924;2022-12-18T13:24:15;101791.06;;;-0.65;67.25
69402;BME280;56589;51.992;5.924;2022-12-18T13:26:48;101800.53;;;-0.65;66.98
69402;BME280;56589;51.992;5.924;2022-12-18T13:29:41;101799.69;;;-0.63;66.88
69402;BME280;56589;51.992;5.924;2022-12-18T13:32:21;101797.94;;;-0.64;66.78
69402;BME280;56589;51.992;5.924;2022-12-18T13:38:20;101799.69;;;-0.63;66.92
69402;BME280;56589;51.992;5.924;2022-12-18T13:40:55;101799.66;;;-0.61;66.81
69402;BME280;56589;51.992;5.924;2022-12-18T13:43:39;101803.94;;;-0.65;66.92
69402;BME280;56589;51.992;5.924;2022-12-18T13:46:19;101798.78;;;-0.63;66.41
69402;BME280;56589;51.992;5.924;2022-12-18T13:48:55;101792.78;;;-0.64;66.12
69402;BME280;56589;51.992;5.924;2022-12-18T13:51:24;101789.34;;;-0.66;65.80
69402;BME280;56589;51.992;5.924;2022-12-18T13:53:56;101783.31;;;-0.65;66.30
69402;BME280;56589;51.992;5.924;2022-12-18T13:56:26;101778.19;;;-0.62;66.74
69402;BME280;56589;51.992;5.924;2022-12-18T13:59:08;101779.03;;;-0.60;66.86
69402;BME280;56589;51.992;5.924;2022-12-18T14:01:42;101777.28;;;-0.59;66.53
69402;BME280;56589;51.992;5.924;2022-12-18T14:04:10;101766.13;;;-0.58;66.36
69402;BME280;56589;51.992;5.924;2022-12-18T14:06:37;101756.66;;;-0.55;66.81
69402;BME280;56589;51.992;5.924;2022-12-18T14:09:12;101758.41;;;-0.57;65.84
69402;BME280;56589;51.992;5.924;2022-12-18T14:11:41;101755.78;;;-0.58;65.32
69402;BME280;56589;51.992;5.924;2022-12-18T14:14:13;101751.50;;;-0.59;66.00
69402;BME280;56589;51.992;5.924;2022-12-18T14:16:43;101757.53;;;-0.59;66.00
69402;BME280;56589;51.992;5.924;2022-12-18T14:19:12;101752.38;;;-0.59;66.46
69402;BME280;56589;51.992;5.924;2022-12-18T14:21:45;101759.25;;;-0.56;66.06